Time,TemperatureF,DewpointF,PressureIn,WindDirection,WindDirectionDegrees,WindSpeedMPH,WindSpeedGustMPH,Humidity,HourlyPrecipIn,Conditions,Clouds,dailyrainin,SoftwareType,DateUTC
2013-05-13 00:00:00,41.9,30.6,30.06,WNW,285,0.0,0.0,64,0.00,,CLR,0.00,VWS V14.01,2013-05-13 05:00:00,
2013-05-13 00:01:00,41.9,30.6,30.06,WNW,285,0.0,0.0,64,0.00,,CLR,0.00,VWS V14.01,2013-05-13 05:01:00,
2013-05-13 00:05:00,42.0,30.7,30.06,WNW,285,0.0,0.0,64,0.00,,CLR,0.00,VWS V14.01,2013-05-13 05:05:00,
2013-05-13 00:06:00,42.0,30.7,30.06,WNW,285,0.0,0.0,64,0.00,,CLR,0.00,VWS V14.01,2013-05-13 05:06:00,
2013-05-13 00:10:00,42.0,30.7,30.07,WNW,285,0.0,0.0,64,0.00,,CLR,0.00,VWS V14.01,2013-05-13 05:10:00,
2013-05-13 00:15:00,42.0,30.7,30.06,WNW,285,0.0,0.0,64,0.00,,CLR,0.00,VWS V14.01,2013-05-13 05:15:00,
2013-05-13 00:20:00,42.0,30.7,30.07,WNW,285,0.0,0.0,64,0.00,,CLR,0.00,VWS V14.01,2013-05-13 05:20:00,
2013-05-13 00:25:00,42.0,31.1,30.07,WNW,285,0.0,0.0,65,0.00,,CLR,0.00,VWS V14.01,2013-05-13 05:25:00,
2013-05-13 00:30:00,41.8,30.9,30.07,WNW,285,0.0,0.0,65,0.00,,CLR,0.00,VWS V14.01,2013-05-13 05:30:00,
2013-05-13 00:35:00,41.8,30.9,30.06,WNW,285,0.0,0.0,65,0.00,,CLR,0.00,VWS V14.01,2013-05-13 05:35:00,
2013-05-13 00:40:00,41.8,30.9,30.06,WNW,285,0.0,0.0,65,0.00,,CLR,0.00,VWS V14.01,2013-05-13 05:40:00,
2013-05-13 00:45:00,41.8,31.3,30.07,WNW,285,0.0,0.0,66,0.00,,CLR,0.00,VWS V14.01,2013-05-13 05:45:00,
2013-05-13 00:50:00,41.7,31.2,30.07,WNW,285,0.0,0.0,66,0.00,,CLR,0.00,VWS V14.01,2013-05-13 05:50:00,
2013-05-13 00:55:00,41.5,31.0,30.07,WNW,285,0.0,0.0,66,0.00,,CLR,0.00,VWS V14.01,2013-05-13 05:55:00,
2013-05-13 01:00:00,41.1,31.0,30.07,WNW,285,0.0,0.0,67,0.00,,CLR,0.00,VWS V14.01,2013-05-13 06:00:00,
2013-05-13 01:05:00,40.9,31.5,30.07,WNW,285,0.0,0.0,69,0.00,,CLR,0.00,VWS V14.01,2013-05-13 06:05:00,
2013-05-13 01:10:00,40.7,31.3,30.07,WNW,285,0.0,0.0,69,0.00,,CLR,0.00,VWS V14.01,2013-05-13 06:10:00,
2013-05-13 01:15:00,40.6,30.9,30.07,WNW,285,0.0,0.0,68,0.00,,CLR,0.00,VWS V14.01,2013-05-13 06:15:00,
2013-05-13 01:20:00,40.4,31.0,30.07,WNW,285,0.0,0.0,69,0.00,,CLR,0.00,VWS V14.01,2013-05-13 06:20:00,
2013-05-13 01:25:00,40.2,30.9,30.07,WNW,285,0.0,0.0,69,0.00,,CLR,0.00,VWS V14.01,2013-05-13 06:25:00,
2013-05-13 01:30:00,40.2,31.2,30.07,WNW,285,0.0,0.0,70,0.00,,CLR,0.00,VWS V14.01,2013-05-13 06:30:00,
2013-05-13 01:35:00,40.2,31.2,30.07,WNW,285,0.0,0.0,70,0.00,,CLR,0.00,VWS V14.01,2013-05-13 06:35:00,
2013-05-13 20:47:00,62.4,38.4,29.93,SSE,159,0.0,0.0,41,0.00,,CLR,0.00,VWS V14.01,2013-05-14 01:47:00,
2013-05-13 20:52:00,62.2,38.2,29.93,SSE,159,0.0,0.0,41,0.00,,CLR,0.00,VWS V14.01,2013-05-14 01:52:00,
2013-05-13 20:57:00,62.2,38.2,29.93,SSE,159,1.0,1.0,41,0.00,,CLR,0.00,VWS V14.01,2013-05-14 01:57:00,
2013-05-13 21:02:00,62.1,38.1,29.94,SSE,159,0.0,0.0,41,0.00,,BKN120,0.00,VWS V14.01,2013-05-14 02:02:00,
2013-05-13 21:07:00,62.2,38.2,29.94,SSE,159,0.0,1.0,41,0.00,,BKN120,0.00,VWS V14.01,2013-05-14 02:07:00,
2013-05-13 21:12:00,62.2,38.8,29.94,SSE,159,1.0,4.0,42,0.00,,BKN120,0.00,VWS V14.01,2013-05-14 02:12:00,
2013-05-13 21:17:00,61.8,40.3,29.94,SSE,159,0.0,2.0,45,0.00,,BKN120,0.00,VWS V14.01,2013-05-14 02:17:00,
2013-05-13 21:22:00,61.9,39.8,29.94,SSE,159,2.0,5.0,44,0.00,,BKN120,0.00,VWS V14.01,2013-05-14 02:22:00,
2013-05-13 21:27:00,62.0,39.9,29.94,SSE,159,2.0,2.0,44,0.00,,BKN120,0.00,VWS V14.01,2013-05-14 02:27:00,
2013-05-13 21:32:00,61.8,40.3,29.94,SSE,159,2.0,5.0,45,0.00,,BKN120,0.00,VWS V14.01,2013-05-14 02:32:00,
2013-05-13 21:37:00,61.4,39.9,29.94,SE,144,4.0,6.0,45,0.00,,BKN120,0.00,VWS V14.01,2013-05-14 02:37:00,
2013-05-13 21:42:00,61.4,40.5,29.94,SE,146,2.0,6.0,46,0.00,,FEW120,0.00,VWS V14.01,2013-05-14 02:42:00,
2013-05-13 21:47:00,61.4,39.9,29.94,SE,144,5.0,6.0,45,0.00,,FEW120,0.00,VWS V14.01,2013-05-14 02:47:00,
2013-05-13 21:52:00,61.4,39.9,29.93,SE,143,4.0,6.0,45,0.00,,FEW120,0.00,VWS V14.01,2013-05-14 02:52:00,
2013-05-13 21:57:00,61.5,40.5,29.93,SE,142,4.0,7.0,46,0.00,,FEW120,0.00,VWS V14.01,2013-05-14 02:57:00,
2013-05-13 22:02:00,61.5,40.5,29.93,SE,143,5.0,7.0,46,0.00,,FEW120,0.00,VWS V14.01,2013-05-14 03:02:00,
2013-05-13 22:07:00,61.4,40.5,29.93,SSE,150,6.0,8.0,46,0.00,,FEW120,0.00,VWS V14.01,2013-05-14 03:07:00,
2013-05-13 22:12:00,61.4,39.9,29.93,SSE,149,2.0,8.0,45,0.00,,FEW120,0.00,VWS V14.01,2013-05-14 03:12:00,
2013-05-13 22:17:00,61.4,39.9,29.93,SE,146,2.0,6.0,45,0.00,,FEW120,0.00,VWS V14.01,2013-05-14 03:17:00,
2013-05-13 22:22:00,61.2,40.3,29.92,SSE,148,4.0,5.0,46,0.00,,CLR,0.00,VWS V14.01,2013-05-14 03:22:00,
2013-05-13 22:27:00,61.3,40.4,29.92,SE,143,7.0,7.0,46,0.00,,CLR,0.00,VWS V14.01,2013-05-14 03:27:00,
2013-05-13 22:32:00,61.2,40.3,29.92,SSE,148,1.0,7.0,46,0.00,,CLR,0.00,VWS V14.01,2013-05-14 03:32:00,
2013-05-13 22:37:00,61.1,40.2,29.92,SE,144,5.0,7.0,46,0.00,,CLR,0.00,VWS V14.01,2013-05-14 03:37:00,
2013-05-13 22:42:00,60.9,40.0,29.91,SE,140,5.0,6.0,46,0.00,,CLR,0.00,VWS V14.01,2013-05-14 03:42:00,
2013-05-13 22:47:00,60.8,39.9,29.91,SE,132,4.0,8.0,46,0.00,,CLR,0.00,VWS V14.01,2013-05-14 03:47:00,
2013-05-13 22:52:00,60.5,40.2,29.91,SE,142,4.0,6.0,47,0.00,,CLR,0.00,VWS V14.01,2013-05-14 03:52:00,
2013-05-13 22:57:00,60.3,40.5,29.90,SSE,160,1.0,6.0,48,0.00,,CLR,0.00,VWS V14.01,2013-05-14 03:57:00,
2013-05-13 23:01:00,60.1,40.4,29.90,SSE,155,4.0,7.0,48,0.00,,CLR,0.00,VWS V14.01,2013-05-14 04:01:00,
2013-05-13 23:06:00,60.0,40.8,29.90,SE,131,6.0,7.0,49,0.00,,CLR,0.00,VWS V14.01,2013-05-14 04:06:00,
2013-05-13 23:11:00,59.8,40.6,29.90,SSE,156,1.0,5.0,49,0.00,,CLR,0.00,VWS V14.01,2013-05-14 04:11:00,
2013-05-13 23:16:00,59.9,40.7,29.90,SE,141,2.0,7.0,49,0.00,,CLR,0.00,VWS V14.01,2013-05-14 04:16:00,
2013-05-13 23:21:00,60.1,40.4,29.89,SE,138,4.0,6.0,48,0.00,,CLR,0.00,VWS V14.01,2013-05-14 04:21:00,
2013-05-13 23:26:00,59.9,40.2,29.89,SE,140,5.0,9.0,48,0.00,,CLR,0.00,VWS V14.01,2013-05-14 04:26:00,
2013-05-13 23:31:00,60.0,40.3,29.89,SE,146,6.0,10.0,48,0.00,,CLR,0.00,VWS V14.01,2013-05-14 04:31:00,
2013-05-13 23:36:00,60.1,40.4,29.89,SE,140,5.0,8.0,48,0.00,,CLR,0.00,VWS V14.01,2013-05-14 04:36:00,
2013-05-13 23:41:00,60.0,40.3,29.88,SE,138,6.0,7.0,48,0.00,,CLR,0.00,VWS V14.01,2013-05-14 04:41:00,
2013-05-13 23:46:00,59.7,40.5,29.88,SE,136,7.0,9.0,49,0.00,,CLR,0.00,VWS V14.01,2013-05-14 04:46:00,
2013-05-13 23:51:00,59.4,40.2,29.88,SE,135,6.0,8.0,49,0.00,,CLR,0.00,VWS V14.01,2013-05-14 04:51:00,
2013-05-13 23:56:00,59.3,40.7,29.87,SSE,151,7.0,9.0,50,0.00,,CLR,0.00,VWS V14.01,2013-05-14 04:56:00,